Time;durP1;ratioP1;P1;durP2;ratioP2;P2;SDS_P1;SDS_P2;PMS_P1;PMS_P2;Temp;Humidity;BMP_temperature;BMP_pressure;BME280_temperature;BME280_humidity;BME280_pressure;Samples;Min_cycle;Max_cycle;Signal;HPM_P1;HPM_P2
2021/04/21 00:01:06;;;;;;;4.85;3.95;;;18.50;53.00;;;;;;5055386;28;20283;-63
2021/04/21 00:03:32;;;;;;;4.05;3.67;;;18.50;52.90;;;;;;5054428;28;20177;-64
2021/04/21 00:05:58;;;;;;;4.38;4.03;;;18.50;52.90;;;;;;5055247;28;20612;-63
2021/04/21 00:08:24;;;;;;;4.20;3.80;;;18.50;52.90;;;;;;5054678;28;20217;-63
2021/04/21 00:10:50;;;;;;;4.30;3.90;;;18.50;52.90;;;;;;5055185;28;20194;-64
2021/04/21 00:13:15;;;;;;;4.50;3.90;;;18.50;52.90;;;;;;5054894;28;20637;-64
2021/04/21 00:15:41;;;;;;;4.05;3.72;;;18.50;52.90;;;;;;5071047;28;20181;-64
2021/04/21 00:18:07;;;;;;;3.75;3.45;;;18.50;52.90;;;;;;5055069;28;20175;-64
2021/04/21 00:20:32;;;;;;;4.40;4.00;;;18.40;52.80;;;;;;5054632;28;20245;-64
2021/04/21 00:22:59;;;;;;;4.15;3.75;;;18.50;52.80;;;;;;5054399;28;20229;-65
2021/04/21 00:25:30;;;;;;;3.80;3.50;;;18.50;52.90;;;;;;5055011;28;20182;-64
2021/04/21 00:27:56;;;;;;;4.07;3.70;;;18.40;52.80;;;;;;5071730;28;20163;-65
2021/04/21 00:30:26;;;;;;;4.13;3.72;;;18.50;52.80;;;;;;5054332;28;20507;-63
2021/04/21 00:32:51;;;;;;;4.30;4.00;;;18.40;52.80;;;;;;5071303;28;20633;-64
2021/04/21 00:35:44;;;;;;;4.00;3.70;;;18.40;52.70;;;;;;5054399;28;20196;-65
2021/04/21 00:38:21;;;;;;;4.88;4.10;;;18.40;52.80;;;;;;5070888;28;20190;-64
2021/04/21 00:40:56;;;;;;;4.35;3.95;;;18.40;52.70;;;;;;5054406;28;20270;-64
2021/04/21 00:43:47;;;;;;;3.97;3.65;;;18.40;52.70;;;;;;5054958;28;20640;-65
2021/04/21 00:46:16;;;;;;;3.80;3.50;;;18.40;52.70;;;;;;5054611;28;20194;-64
2021/04/21 00:48:51;;;;;;;5.00;3.67;;;18.40;52.70;;;;;;5071110;28;20170;-64
2021/04/21 00:51:26;;;;;;;3.83;3.50;;;18.40;52.70;;;;;;5054080;28;20581;-63
2021/04/21 00:53:57;;;;;;;3.60;3.30;;;18.40;52.60;;;;;;5054999;28;20177;-66
2021/04/21 00:56:43;;;;;;;4.10;3.70;;;18.40;52.60;;;;;;5055284;28;20181;-64
2021/04/21 00:59:42;;;;;;;3.55;3.25;;;18.40;52.60;;;;;;5070801;28;20198;-64
2021/04/21 01:02:08;;;;;;;3.97;3.50;;;18.40;52.60;;;;;;5041409;28;20179;-64
2021/04/21 01:04:34;;;;;;;3.42;3.13;;;18.40;53.30;;;;;;5054360;28;20257;-64
2021/04/21 01:06:59;;;;;;;3.65;3.35;;;18.40;52.60;;;;;;5054203;28;20279;-63
2021/04/21 01:09:25;;;;;;;4.00;3.60;;;18.30;52.60;;;;;;5037941;28;20634;-63
2021/04/21 01:11:53;;;;;;;3.55;3.35;;;18.40;52.60;;;;;;5036917;28;20162;-64
2021/04/21 01:14:21;;;;;;;3.70;3.33;;;18.30;52.60;;;;;;5071093;28;20323;-64
2021/04/21 01:16:49;;;;;;;3.80;3.50;;;18.30;52.60;;;;;;5054387;28;20175;-65
2021/04/21 01:19:36;;;;;;;3.97;3.60;;;18.30;52.60;;;;;;5070524;28;20194;-65
2021/04/21 01:22:10;;;;;;;3.88;3.58;;;18.30;52.50;;;;;;5056906;28;20205;-65
2021/04/21 01:24:43;;;;;;;4.13;3.72;;;18.30;52.50;;;;;;5058404;28;20198;-64
2021/04/21 01:27:12;;;;;;;3.97;3.67;;;18.30;52.60;;;;;;5074081;28;20173;-64
2021/04/21 01:29:48;;;;;;;3.63;3.28;;;18.30;52.60;;;;;;5074247;28;20192;-66
2021/04/21 01:32:25;;;;;;;3.78;3.40;;;18.30;52.60;;;;;;5058196;28;20613;-65
2021/04/21 01:34:51;;;;;;;3.53;3.22;;;18.30;52.50;;;;;;5058181;28;20173;-64
2021/04/21 01:37:20;;;;;;;3.70;3.22;;;18.30;52.50;;;;;;5074391;28;20649;-65
2021/04/21 01:39:50;;;;;;;3.70;3.40;;;18.30;52.50;;;;;;5057902;28;20555;-64
2021/04/21 01:42:16;;;;;;;3.38;3.08;;;18.30;52.50;;;;;;5074489;28;20166;-64
2021/04/21 01:44:42;;;;;;;3.70;3.40;;;18.30;52.60;;;;;;5074000;28;20256;-65
2021/04/21 01:47:13;;;;;;;3.17;2.97;;;18.20;52.50;;;;;;5057630;28;20193;-64
2021/04/21 01:49:38;;;;;;;3.83;3.53;;;18.20;52.50;;;;;;5061225;28;20189;-64
2021/04/21 01:52:10;;;;;;;3.70;3.30;;;18.20;52.50;;;;;;5077594;28;20522;-64
2021/04/21 01:54:35;;;;;;;3.50;3.10;;;18.20;52.40;;;;;;5043732;28;20220;-64
2021/04/21 01:57:08;;;;;;;3.40;3.13;;;18.20;52.50;;;;;;5077921;28;20644;-64
2021/04/21 01:59:43;;;;;;;3.65;3.35;;;18.20;52.50;;;;;;5060891;28;20288;-65
2021/04/21 02:02:32;;;;;;;4.00;3.70;;;18.20;52.50;;;;;;5060812;28;20168;-64
2021/04/21 02:05:20;;;;;;;3.58;3.28;;;18.20;52.50;;;;;;5046759;28;20170;-64
2021/04/21 02:07:55;;;;;;;3.38;3.08;;;18.20;52.50;;;;;;5044173;28;20173;-65
2021/04/21 02:10:30;;;;;;;3.28;2.97;;;18.20;52.50;;;;;;5077318;28;20174;-64
2021/04/21 02:13:24;;;;;;;4.10;3.70;;;18.20;52.50;;;;;;5095517;28;20173;-65
2021/04/21 02:16:03;;;;;;;3.47;3.17;;;18.20;52.50;;;;;;5076282;28;20550;-65
2021/04/21 02:18:34;;;;;;;3.42;3.13;;;18.20;52.50;;;;;;5077536;28;20161;-65
2021/04/21 02:21:16;;;;;;;3.47;3.17;;;18.20;52.50;;;;;;5095233;28;20210;-65
2021/04/21 02:24:09;;;;;;;3.35;3.13;;;18.20;52.50;;;;;;5076986;28;20217;-65
2021/04/21 02:27:10;;;;;;;3.63;3.30;;;18.10;52.40;;;;;;5095030;28;20253;-64
2021/04/21 02:29:50;;;;;;;3.58;3.28;;;18.20;52.50;;;;;;5061543;28;20166;-66
2021/04/21 02:32:20;;;;;;;4.20;3.58;;;18.20;52.50;;;;;;5095217;28;20204;-64
2021/04/21 02:35:05;;;;;;;3.67;3.38;;;18.10;52.40;;;;;;5060222;28;20261;-65
2021/04/21 02:37:33;;;;;;;3.22;2.97;;;18.20;52.40;;;;;;5060936;28;20215;-64
2021/04/21 02:40:04;;;;;;;3.05;2.85;;;18.10;52.40;;;;;;5094734;28;20228;-64
2021/04/21 02:42:44;;;;;;;3.70;3.30;;;18.10;52.40;;;;;;5076827;28;20196;-65
2021/04/21 02:45:19;;;;;;;3.63;3.30;;;18.10;52.40;;;;;;5076152;28;20235;-65
2021/04/21 02:48:01;;;;;;;3.45;3.03;;;18.10;52.40;;;;;;5076870;28;20223;-66
2021/04/21 02:50:32;;;;;;;3.00;2.80;;;18.10;52.40;;;;;;5076162;28;20903;-64
2021/04/21 02:53:26;;;;;;;3.53;3.22;;;18.10;52.40;;;;;;5060508;28;20173;-66
2021/04/21 02:55:54;;;;;;;3.05;2.85;;;18.10;52.40;;;;;;5044004;28;20566;-64
2021/04/21 02:58:28;;;;;;;3.22;3.00;;;18.10;52.40;;;;;;5058754;28;20174;-65
2021/04/21 03:01:12;;;;;;;3.70;3.40;;;18.10;52.40;;;;;;5060711;28;20298;-64
2021/04/21 03:03:43;;;;;;;3.20;2.90;;;18.10;52.40;;;;;;5076064;28;20173;-64
2021/04/21 03:06:10;;;;;;;3.60;3.30;;;18.00;52.30;;;;;;5076296;28;20178;-63
2021/04/21 03:08:41;;;;;;;3.85;3.40;;;18.00;52.30;;;;;;5075797;28;20165;-63
2021/04/21 03:11:21;;;;;;;3.45;3.05;;;18.00;52.30;;;;;;5094271;28;20637;-64
2021/04/21 03:14:16;;;;;;;3.70;3.40;;;18.10;52.40;;;;;;5060392;28;20177;-65
2021/04/21 03:16:58;;;;;;;3.03;2.83;;;18.10;52.40;;;;;;5076280;28;20189;-65
2021/04/21 03:19:29;;;;;;;2.92;2.72;;;18.00;52.30;;;;;;5058877;28;20189;-64
2021/04/21 03:21:58;;;;;;;2.90;2.70;;;18.10;52.40;;;;;;5076218;28;20213;-64
2021/04/21 03:24:26;;;;;;;3.60;3.30;;;18.00;52.30;;;;;;5075703;28;20221;-64
2021/04/21 03:26:53;;;;;;;3.15;2.85;;;18.00;52.30;;;;;;5075441;28;20605;-64
2021/04/21 03:29:25;;;;;;;3.55;3.25;;;18.00;52.30;;;;;;5042755;28;20188;-63
2021/04/21 03:31:50;;;;;;;3.17;2.97;;;18.00;52.30;;;;;;5075726;28;20162;-64
2021/04/21 03:34:17;;;;;;;3.65;2.90;;;18.00;52.60;;;;;;5058665;28;20170;-64
2021/04/21 03:36:43;;;;;;;3.20;2.92;;;18.00;52.30;;;;;;5075520;28;20203;-64
2021/04/21 03:39:10;;;;;;;2.50;2.35;;;18.00;53.00;;;;;;5075758;28;20583;-64
2021/04/21 03:41:36;;;;;;;2.95;2.75;;;18.00;52.30;;;;;;5074771;28;20178;-64
2021/04/21 03:44:02;;;;;;;3.22;2.83;;;18.00;52.30;;;;;;5075483;28;20165;-65
2021/04/21 03:46:28;;;;;;;2.97;2.78;;;18.00;52.30;;;;;;5075041;28;20178;-65
2021/04/21 03:48:54;;;;;;;2.85;2.63;;;18.00;52.30;;;;;;5075559;28;20203;-63
2021/04/21 03:51:20;;;;;;;3.03;2.83;;;18.00;52.30;;;;;;5058879;28;20619;-66
2021/04/21 03:53:45;;;;;;;3.25;2.85;;;18.00;52.30;;;;;;5074456;28;20726;-66
2021/04/21 03:56:14;;;;;;;3.42;3.03;;;18.00;52.30;;;;;;5058962;28;20165;-65
2021/04/21 03:58:40;;;;;;;3.40;3.10;;;18.00;52.30;;;;;;5075640;28;20174;-66
2021/04/21 04:01:25;;;;;;;2.92;2.72;;;18.00;52.30;;;;;;5058274;28;20217;-65
2021/04/21 04:03:52;;;;;;;3.15;2.95;;;17.90;52.30;;;;;;5093220;28;20509;-64
2021/04/21 04:06:41;;;;;;;3.08;2.85;;;18.00;52.30;;;;;;5075340;28;20681;-63
2021/04/21 04:09:08;;;;;;;2.92;2.72;;;18.00;52.30;;;;;;5074564;28;20166;-64
2021/04/21 04:11:38;;;;;;;2.80;2.60;;;18.00;52.30;;;;;;5057761;28;20166;-64
2021/04/21 04:14:14;;;;;;;2.90;2.70;;;17.90;52.30;;;;;;5075303;28;20174;-64
2021/04/21 04:16:40;;;;;;;2.78;2.58;;;17.90;52.90;;;;;;5075191;28;20240;-64
2021/04/21 04:19:05;;;;;;;2.95;2.75;;;17.90;52.30;;;;;;5041711;28;20216;-64
2021/04/21 04:21:36;;;;;;;3.00;2.80;;;17.90;52.30;;;;;;5058168;28;20178;-64
2021/04/21 04:24:02;;;;;;;3.30;3.00;;;18.00;52.30;;;;;;5071432;28;20218;-64
2021/04/21 04:26:28;;;;;;;3.10;2.90;;;17.90;52.30;;;;;;5071540;28;20548;-63
2021/04/21 04:28:54;;;;;;;2.90;2.70;;;17.90;52.30;;;;;;5071056;28;20178;-64
2021/04/21 04:31:20;;;;;;;3.13;2.70;;;17.90;52.20;;;;;;5072823;28;20193;-66
2021/04/21 04:33:49;;;;;;;2.80;2.60;;;17.90;52.30;;;;;;5071175;28;20163;-64
2021/04/21 04:36:15;;;;;;;3.13;2.92;;;17.90;52.20;;;;;;5054622;28;20166;-64
2021/04/21 04:38:41;;;;;;;3.10;2.80;;;17.90;52.30;;;;;;5071209;28;20209;-65
2021/04/21 04:41:06;;;;;;;2.90;2.70;;;17.90;52.20;;;;;;5054687;28;20234;-65
2021/04/21 04:43:32;;;;;;;3.38;3.08;;;17.90;52.30;;;;;;5053965;28;20178;-65
2021/04/21 04:46:01;;;;;;;3.10;2.80;;;17.90;52.30;;;;;;5054800;28;20257;-65
2021/04/21 04:48:46;;;;;;;3.20;2.90;;;17.90;52.30;;;;;;5072586;28;20169;-66
2021/04/21 04:51:11;;;;;;;3.08;2.78;;;17.90;52.30;;;;;;5055571;28;20166;-63
2021/04/21 04:53:37;;;;;;;2.72;2.53;;;17.90;52.30;;;;;;5072264;28;20652;-64
2021/04/21 04:56:04;;;;;;;2.78;2.58;;;17.90;52.30;;;;;;5071399;28;20187;-64
2021/04/21 04:58:29;;;;;;;2.90;2.70;;;17.90;52.30;;;;;;5053702;28;20178;-64
2021/04/21 05:01:03;;;;;;;2.75;2.55;;;17.90;52.30;;;;;;5037865;28;20653;-65
2021/04/21 05:03:31;;;;;;;2.50;2.30;;;17.80;52.30;;;;;;5038351;28;20524;-64
2021/04/21 05:05:57;;;;;;;3.03;2.72;;;17.90;52.30;;;;;;5054137;28;20181;-64
2021/04/21 05:08:35;;;;;;;2.70;2.50;;;17.90;52.30;;;;;;5054644;28;20258;-65
2021/04/21 05:11:01;;;;;;;3.10;2.80;;;17.80;52.30;;;;;;5055228;28;20193;-64
2021/04/21 05:13:29;;;;;;;2.83;2.63;;;17.80;52.30;;;;;;5071185;28;20668;-65
2021/04/21 05:15:55;;;;;;;2.67;2.47;;;17.80;52.30;;;;;;5071108;28;20163;-65
2021/04/21 05:18:32;;;;;;;3.33;2.97;;;17.80;52.30;;;;;;5071886;28;20174;-64
2021/04/21 05:21:35;;;;;;;2.85;2.55;;;17.80;52.30;;;;;;5072842;28;20736;-65
2021/04/21 05:24:27;;;;;;;2.97;2.78;;;17.80;52.30;;;;;;5090531;28;20235;-64
2021/04/21 05:27:02;;;;;;;2.63;2.42;;;17.80;52.30;;;;;;5077748;28;20637;-64
2021/04/21 05:29:54;;;;;;;4.03;2.88;;;17.80;52.30;;;;;;5096165;28;20202;-64
2021/04/21 05:33:03;;;;;;;2.70;2.50;;;17.80;52.30;;;;;;5095610;28;20265;-65
2021/04/21 05:36:05;;;;;;;2.70;2.50;;;17.80;52.40;;;;;;5061016;28;20177;-64
2021/04/21 05:38:49;;;;;;;2.97;2.78;;;17.80;52.40;;;;;;5095931;28;20227;-65
2021/04/21 05:41:46;;;;;;;2.92;2.70;;;17.80;52.40;;;;;;5095452;28;20330;-65
2021/04/21 05:44:55;;;;;;;2.60;2.40;;;17.80;52.30;;;;;;5095927;28;20672;-64
2021/04/21 05:47:42;;;;;;;2.60;2.38;;;17.80;52.30;;;;;;5095340;28;20174;-65
2021/04/21 05:50:26;;;;;;;2.30;2.10;;;17.80;52.30;;;;;;5095969;28;20252;-64
2021/04/21 05:53:29;;;;;;;2.83;2.55;;;17.80;52.30;;;;;;5095527;28;20236;-66
2021/04/21 05:56:25;;;;;;;2.80;2.47;;;17.80;52.30;;;;;;5095710;28;20165;-64
2021/04/21 05:59:16;;;;;;;2.85;2.65;;;17.80;52.40;;;;;;5095569;28;20264;-66
2021/04/21 06:01:49;;;;;;;2.80;2.60;;;17.80;52.30;;;;;;5079574;28;20247;-64
2021/04/21 06:04:17;;;;;;;2.85;2.60;;;17.80;52.30;;;;;;5077666;28;20166;-63
2021/04/21 06:06:43;;;;;;;2.50;2.30;;;17.70;52.30;;;;;;5077174;28;20552;-64
2021/04/21 06:09:09;;;;;;;2.80;2.60;;;17.80;52.30;;;;;;5076971;28;20257;-63
2021/04/21 06:11:35;;;;;;;2.97;2.78;;;17.80;52.60;;;;;;5077192;28;20170;-65
2021/04/21 06:14:03;;;;;;;3.08;2.75;;;17.70;52.30;;;;;;5077307;28;20177;-72
2021/04/21 06:16:29;;;;;;;2.85;2.65;;;17.80;52.20;;;;;;5076360;28;20690;-72
2021/04/21 06:18:57;;;;;;;4.00;3.17;;;17.80;52.10;;;;;;5060546;28;20256;-72
2021/04/21 06:21:24;;;;;;;3.97;3.67;;;17.90;52.00;;;;;;5094619;28;20209;-76
2021/04/21 06:23:51;;;;;;;4.70;4.30;;;17.90;51.70;;;;;;5076746;28;20271;-76
2021/04/21 06:26:22;;;;;;;3.83;3.53;;;17.90;51.60;;;;;;5077131;28;20177;-70
2021/04/21 06:29:02;;;;;;;4.30;3.90;;;17.90;51.70;;;;;;5094090;28;20207;-69
2021/04/21 06:31:35;;;;;;;3.90;3.53;;;17.90;51.50;;;;;;5060594;28;20648;-68
2021/04/21 06:34:01;;;;;;;4.43;3.63;;;18.00;51.60;;;;;;5094019;28;20203;-68
2021/04/21 06:36:46;;;;;;;6.55;3.67;;;18.00;51.60;;;;;;5094594;28;20166;-66
2021/04/21 06:39:12;;;;;;;3.95;3.22;;;18.00;51.60;;;;;;5069561;28;20199;-74
2021/04/21 06:41:38;;;;;;;3.60;2.97;;;18.00;51.80;;;;;;5085453;28;20641;-75
2021/04/21 06:44:05;;;;;;;3.58;3.28;;;18.00;51.80;;;;;;5085412;28;20184;-72
2021/04/21 06:46:30;;;;;;;4.55;3.22;;;18.00;51.90;;;;;;5065236;28;20174;-72
2021/04/21 06:49:01;;;;;;;3.67;2.90;;;18.00;52.00;;;;;;5076649;28;20531;-71
2021/04/21 06:51:28;;;;;;;5.20;3.35;;;18.10;51.90;;;;;;5076140;28;20161;-70
2021/04/21 06:53:54;;;;;;;3.55;3.25;;;18.00;52.00;;;;;;5060102;28;20173;-69
2021/04/21 06:56:31;;;;;;;4.45;3.38;;;18.10;52.10;;;;;;5059421;28;20165;-72
2021/04/21 06:58:57;;;;;;;3.55;3.22;;;18.00;52.00;;;;;;5076419;28;20169;-72
2021/04/21 07:01:28;;;;;;;6.43;3.10;;;18.10;52.00;;;;;;5059875;28;20201;-73
2021/04/21 07:04:12;;;;;;;4.45;2.92;;;18.10;52.10;;;;;;5076377;28;20177;-71
2021/04/21 07:06:38;;;;;;;4.00;2.97;;;18.20;52.80;;;;;;5094339;28;20177;-71
2021/04/21 07:09:13;;;;;;;3.53;2.75;;;18.20;52.10;;;;;;5059416;28;20162;-68
2021/04/21 07:11:40;;;;;;;5.53;3.05;;;18.20;52.30;;;;;;5093415;28;20260;-72
2021/04/21 07:14:05;;;;;;;3.60;3.28;;;18.20;52.30;;;;;;5042707;28;20188;-72
2021/04/21 07:16:31;;;;;;;2.78;2.58;;;18.20;52.30;;;;;;5075496;28;20166;-67
2021/04/21 07:18:58;;;;;;;3.00;2.70;;;18.20;52.30;;;;;;5058975;28;20193;-67
2021/04/21 07:21:24;;;;;;;9.55;3.40;;;18.20;52.30;;;;;;5059203;28;20672;-72
2021/04/21 07:23:55;;;;;;;4.95;3.25;;;18.20;52.30;;;;;;5058655;28;20328;-72
2021/04/21 07:26:45;;;;;;;3.08;2.78;;;18.30;52.30;;;;;;5075419;28;20637;-75
2021/04/21 07:29:21;;;;;;;5.18;2.60;;;18.30;52.40;;;;;;5081115;28;20192;-69
2021/04/21 07:31:46;;;;;;;6.00;2.80;;;18.30;52.30;;;;;;5075210;28;20174;-72
2021/04/21 07:34:13;;;;;;;6.28;2.75;;;18.30;52.20;;;;;;5075634;28;20177;-68
2021/04/21 07:36:46;;;;;;;5.60;3.00;;;18.40;52.20;;;;;;5058991;28;20169;-68
2021/04/21 07:39:12;;;;;;;4.65;3.00;;;18.30;52.00;;;;;;5058556;28;20206;-68
2021/04/21 07:41:38;;;;;;;6.50;3.22;;;18.40;52.30;;;;;;5058834;28;20181;-68
2021/04/21 07:44:05;;;;;;;4.70;2.78;;;18.30;52.40;;;;;;5058839;28;20574;-71
2021/04/21 07:46:31;;;;;;;3.95;3.10;;;18.30;52.50;;;;;;5092898;28;20173;-76
2021/04/21 07:48:56;;;;;;;3.83;2.53;;;18.30;52.60;;;;;;5075401;28;20169;-75
2021/04/21 07:51:24;;;;;;;5.03;3.55;;;18.30;52.60;;;;;;5075383;28;20170;-77
2021/04/21 07:54:03;;;;;;;5.65;3.00;;;18.30;52.70;;;;;;5092562;28;20162;-68
2021/04/21 07:56:34;;;;;;;4.22;2.95;;;18.30;52.60;;;;;;5075244;28;20547;-69
2021/04/21 07:59:20;;;;;;;3.00;2.65;;;18.40;52.60;;;;;;5059993;28;20170;-68
2021/04/21 08:01:46;;;;;;;3.42;2.75;;;18.40;52.50;;;;;;5074719;28;20181;-69
2021/04/21 08:04:27;;;;;;;3.30;2.80;;;18.40;52.50;;;;;;5093291;28;20178;-68
2021/04/21 08:06:54;;;;;;;3.28;2.90;;;18.40;52.50;;;;;;5092795;28;20184;-68
2021/04/21 08:09:21;;;;;;;4.07;2.70;;;18.40;52.50;;;;;;5042083;28;20170;-77
2021/04/21 08:11:47;;;;;;;3.08;2.42;;;18.40;52.40;;;;;;5074954;28;20532;-67
2021/04/21 08:14:12;;;;;;;5.68;3.10;;;18.50;52.40;;;;;;5040971;28;20170;-72
2021/04/21 08:16:38;;;;;;;4.13;3.00;;;18.50;52.50;;;;;;5058248;28;20711;-68
2021/04/21 08:19:12;;;;;;;3.33;2.78;;;18.50;52.50;;;;;;5075266;28;20197;-69
2021/04/21 08:21:45;;;;;;;4.15;2.67;;;18.50;52.50;;;;;;5057536;28;20736;-69
2021/04/21 08:24:15;;;;;;;3.15;2.60;;;18.50;52.40;;;;;;5058121;28;20240;-69
2021/04/21 08:26:53;;;;;;;4.05;2.78;;;18.50;52.40;;;;;;5074799;28;20629;-73
2021/04/21 08:29:18;;;;;;;3.85;3.10;;;18.50;52.40;;;;;;5074730;28;20700;-67
2021/04/21 08:31:51;;;;;;;4.00;2.95;;;18.50;52.50;;;;;;5074818;28;20265;-69
2021/04/21 08:34:20;;;;;;;3.85;3.10;;;18.60;52.50;;;;;;5076039;28;20166;-75
2021/04/21 08:36:46;;;;;;;3.42;2.80;;;18.60;52.60;;;;;;5074036;28;20170;-69
2021/04/21 08:39:12;;;;;;;5.20;3.13;;;18.70;52.60;;;;;;5074978;28;20166;-68
2021/04/21 08:41:39;;;;;;;3.75;2.35;;;18.70;52.60;;;;;;5092628;28;20681;-68
2021/04/21 08:44:05;;;;;;;4.18;2.67;;;18.60;52.60;;;;;;5040904;28;20261;-67
2021/04/21 08:46:30;;;;;;;2.67;2.47;;;18.60;52.70;;;;;;5057844;28;20594;-68
2021/04/21 08:49:00;;;;;;;3.17;2.88;;;18.50;52.70;;;;;;5092213;28;20173;-71
2021/04/21 08:51:25;;;;;;;4.72;2.95;;;18.60;52.80;;;;;;5058056;28;20613;-70
2021/04/21 08:54:06;;;;;;;5.03;2.88;;;18.60;52.80;;;;;;5057458;28;20273;-70
2021/04/21 08:56:33;;;;;;;4.32;2.78;;;18.60;52.70;;;;;;5059730;28;20249;-71
2021/04/21 08:58:59;;;;;;;2.97;2.65;;;18.60;52.70;;;;;;5079027;28;20177;-70
2021/04/21 09:01:24;;;;;;;3.55;3.00;;;18.70;52.80;;;;;;5078594;28;20216;-71
2021/04/21 09:03:50;;;;;;;3.35;3.05;;;18.70;53.40;;;;;;5061119;28;20170;-71
2021/04/21 09:06:17;;;;;;;2.72;2.30;;;18.70;52.80;;;;;;5061954;28;20169;-72
2021/04/21 09:08:44;;;;;;;2.78;2.58;;;18.70;52.80;;;;;;5061883;28;20215;-73
2021/04/21 09:11:09;;;;;;;4.57;2.50;;;18.70;52.80;;;;;;5078112;28;20682;-70
2021/04/21 09:13:35;;;;;;;3.90;2.45;;;18.80;52.80;;;;;;5078246;28;20181;-77
2021/04/21 09:16:01;;;;;;;4.47;2.58;;;18.80;52.90;;;;;;5078421;28;20605;-71
2021/04/21 09:18:33;;;;;;;3.30;3.00;;;18.80;52.90;;;;;;5095787;28;20184;-71
2021/04/21 09:21:00;;;;;;;3.58;3.28;;;18.80;52.90;;;;;;5061729;28;20260;-71
2021/04/21 09:23:41;;;;;;;3.28;2.88;;;18.80;52.90;;;;;;5058301;28;20207;-72
2021/04/21 09:26:20;;;;;;;3.30;3.00;;;18.80;52.90;;;;;;5059706;28;20320;-73
2021/04/21 09:28:48;;;;;;;3.15;2.85;;;18.80;53.00;;;;;;5074387;28;20162;-70
2021/04/21 09:31:22;;;;;;;3.92;2.83;;;18.90;52.90;;;;;;5041060;28;20236;-65
2021/04/21 09:33:53;;;;;;;6.20;2.65;;;18.90;53.50;;;;;;5074346;28;20220;-71
2021/04/21 09:36:36;;;;;;;4.72;2.78;;;18.90;53.00;;;;;;5074772;28;20163;-67
2021/04/21 09:39:10;;;;;;;3.08;2.72;;;18.90;53.00;;;;;;5073077;28;20201;-66
2021/04/21 09:41:37;;;;;;;3.97;2.80;;;18.90;53.00;;;;;;5057286;28;20186;-67
2021/04/21 09:44:19;;;;;;;4.05;2.67;;;18.90;53.00;;;;;;5074691;28;20224;-67
2021/04/21 09:46:45;;;;;;;4.32;2.58;;;19.00;53.10;;;;;;5074766;28;20231;-67
2021/04/21 09:49:31;;;;;;;3.85;2.67;;;18.90;53.20;;;;;;5074304;28;20531;-67
2021/04/21 09:51:57;;;;;;;4.68;2.80;;;18.80;53.20;;;;;;5075605;28;20653;-68
2021/04/21 09:54:38;;;;;;;3.08;2.80;;;18.90;53.20;;;;;;5073813;28;20166;-68
2021/04/21 09:57:16;;;;;;;2.75;2.42;;;18.90;53.20;;;;;;5074568;28;20178;-69
2021/04/21 09:59:42;;;;;;;4.88;2.85;;;18.90;53.10;;;;;;5074738;28;20194;-67
2021/04/21 10:02:28;;;;;;;2.58;2.35;;;19.00;53.10;;;;;;5074190;28;20223;-64
2021/04/21 10:04:54;;;;;;;3.55;2.67;;;19.10;53.20;;;;;;5074040;28;20592;-64
2021/04/21 10:07:19;;;;;;;5.25;3.05;;;19.10;53.10;;;;;;5072690;28;20269;-64
2021/04/21 10:09:47;;;;;;;3.63;2.45;;;19.10;53.10;;;;;;5039956;28;20534;-64
2021/04/21 10:12:29;;;;;;;2.83;2.60;;;19.10;53.10;;;;;;5073679;28;20174;-65
2021/04/21 10:15:06;;;;;;;4.60;2.60;;;19.20;53.10;;;;;;5073159;28;20162;-64
2021/04/21 10:17:34;;;;;;;3.22;2.53;;;19.20;53.10;;;;;;5074864;28;20167;-64
2021/04/21 10:20:00;;;;;;;3.85;2.40;;;19.20;53.10;;;;;;5057051;28;20205;-64
2021/04/21 10:22:26;;;;;;;2.70;2.40;;;19.30;53.00;;;;;;5056314;28;20580;-65
2021/04/21 10:24:52;;;;;;;2.85;2.10;;;19.30;53.10;;;;;;5056189;28;20684;-64
2021/04/21 10:27:18;;;;;;;2.58;2.15;;;19.30;53.00;;;;;;5056710;28;20713;-67
2021/04/21 10:29:43;;;;;;;2.67;2.28;;;19.30;53.00;;;;;;5073205;28;20253;-69
2021/04/21 10:32:10;;;;;;;4.15;2.45;;;19.30;53.00;;;;;;5057225;28;20239;-66
2021/04/21 10:34:36;;;;;;;3.75;2.67;;;19.30;53.10;;;;;;5056049;28;20266;-67
2021/04/21 10:37:02;;;;;;;2.70;2.47;;;19.30;53.10;;;;;;5056814;28;20253;-67
2021/04/21 10:39:30;;;;;;;5.07;2.63;;;19.30;53.10;;;;;;5056794;28;20577;-67
2021/04/21 10:42:09;;;;;;;3.15;2.85;;;19.30;53.10;;;;;;5039763;28;20185;-66
2021/04/21 10:44:35;;;;;;;2.97;2.40;;;19.30;53.10;;;;;;5057055;28;20214;-68
2021/04/21 10:47:06;;;;;;;4.32;2.58;;;19.30;53.10;;;;;;5073282;28;20173;-68
2021/04/21 10:50:00;;;;;;;4.07;2.85;;;19.40;53.00;;;;;;5056443;28;20544;-66
2021/04/21 10:52:26;;;;;;;4.65;2.70;;;19.40;53.00;;;;;;5073615;28;20685;-72
2021/04/21 10:55:08;;;;;;;3.45;2.45;;;19.40;53.00;;;;;;5074048;28;20202;-68
2021/04/21 10:57:54;;;;;;;3.72;2.90;;;19.40;53.00;;;;;;5073690;28;20232;-67
2021/04/21 11:00:27;;;;;;;5.18;2.47;;;19.40;53.00;;;;;;5073016;28;20261;-71
2021/04/21 11:03:08;;;;;;;4.15;3.00;;;19.30;53.20;;;;;;5072355;28;20167;-65
2021/04/21 11:05:40;;;;;;;3.47;2.60;;;19.30;53.40;;;;;;5074013;28;20170;-65
2021/04/21 11:08:16;;;;;;;3.28;2.97;;;19.20;53.60;;;;;;5074159;28;20170;-66
2021/04/21 11:10:53;;;;;;;2.95;2.67;;;19.40;53.40;;;;;;5073231;28;20250;-65
2021/04/21 11:13:34;;;;;;;6.13;2.80;;;19.40;53.20;;;;;;5056081;28;20182;-66
2021/04/21 11:16:05;;;;;;;3.30;2.35;;;19.40;53.10;;;;;;5073923;28;20174;-66
2021/04/21 11:18:34;;;;;;;2.67;2.47;;;19.40;53.20;;;;;;5073113;28;20701;-66
2021/04/21 11:21:05;;;;;;;3.25;2.83;;;19.50;53.20;;;;;;5073490;28;20195;-70
2021/04/21 11:24:02;;;;;;;3.05;2.72;;;19.40;53.20;;;;;;5055947;28;20195;-68
2021/04/21 11:26:31;;;;;;;3.40;2.72;;;19.40;53.20;;;;;;5073659;28;20182;-68
2021/04/21 11:29:02;;;;;;;3.60;3.00;;;19.40;53.00;;;;;;5073762;28;20166;-66
2021/04/21 11:31:43;;;;;;;4.45;2.70;;;19.50;53.00;;;;;;5071658;28;20630;-66
2021/04/21 11:34:19;;;;;;;3.53;2.92;;;19.50;52.90;;;;;;5073740;28;20174;-66
2021/04/21 11:37:07;;;;;;;3.47;3.00;;;19.50;52.90;;;;;;5073304;28;20162;-69
2021/04/21 11:42:37;;;;;;;2.80;2.42;;;19.50;52.90;;;;;;5073712;28;20231;-67
2021/04/21 11:45:12;;;;;;;2.90;2.60;;;19.60;52.80;;;;;;5063143;28;20213;-68
2021/04/21 11:47:45;;;;;;;2.67;2.47;;;19.60;52.80;;;;;;5073080;28;20219;-68
2021/04/21 11:50:12;;;;;;;3.13;2.67;;;19.50;52.80;;;;;;5072297;28;20196;-67
2021/04/21 11:52:46;;;;;;;4.80;2.58;;;19.40;53.10;;;;;;5071210;28;20634;-67
2021/04/21 11:55:37;;;;;;;4.28;2.92;;;19.50;52.90;;;;;;5073228;28;20197;-68
2021/04/21 11:58:10;;;;;;;2.58;2.38;;;19.60;52.80;;;;;;5056603;28;20182;-67
2021/04/21 12:00:43;;;;;;;2.75;2.50;;;19.60;52.80;;;;;;5054605;28;20201;-70
2021/04/21 12:03:16;;;;;;;3.00;2.80;;;19.70;52.60;;;;;;5073293;28;20642;-67
2021/04/21 12:05:42;;;;;;;3.15;2.85;;;19.70;52.60;;;;;;5071684;28;20202;-67
2021/04/21 12:08:07;;;;;;;3.53;3.00;;;19.70;52.50;;;;;;5054687;28;20252;-67
2021/04/21 12:10:34;;;;;;;4.07;2.85;;;19.60;52.60;;;;;;5071647;28;20188;-68
2021/04/21 12:13:20;;;;;;;3.53;3.22;;;19.50;52.70;;;;;;5054575;28;20626;-71
2021/04/21 12:15:47;;;;;;;4.20;2.97;;;19.50;52.70;;;;;;5071429;28;20632;-68
2021/04/21 12:18:27;;;;;;;3.88;2.83;;;19.50;52.80;;;;;;5055474;28;20193;-72
2021/04/21 12:20:54;;;;;;;4.95;3.28;;;19.40;52.90;;;;;;5071030;28;20674;-69
2021/04/21 12:23:26;;;;;;;4.45;3.22;;;19.30;53.50;;;;;;5071837;28;20622;-72
2021/04/21 12:25:52;;;;;;;3.33;3.03;;;19.30;53.00;;;;;;5089917;28;20232;-71
2021/04/21 12:28:17;;;;;;;5.70;2.88;;;19.30;53.10;;;;;;5074401;28;20529;-71
2021/04/21 12:30:43;;;;;;;3.72;3.33;;;19.30;53.10;;;;;;5074065;28;20253;-70
2021/04/21 12:33:09;;;;;;;3.80;3.13;;;19.20;53.10;;;;;;5058339;28;20177;-72
2021/04/21 12:35:35;;;;;;;3.17;2.80;;;19.30;53.80;;;;;;5057371;28;20636;-67
2021/04/21 12:38:01;;;;;;;3.70;3.28;;;19.40;52.90;;;;;;5075227;28;20169;-67
2021/04/21 12:40:28;;;;;;;3.22;2.92;;;19.40;52.70;;;;;;5058326;28;20197;-68
2021/04/21 12:43:15;;;;;;;3.30;3.00;;;19.50;52.60;;;;;;5074467;28;20162;-68
2021/04/21 12:45:41;;;;;;;3.55;3.00;;;19.60;52.40;;;;;;5075411;28;20166;-69
2021/04/21 12:48:26;;;;;;;3.63;3.00;;;19.50;52.50;;;;;;5074533;28;20189;-71
2021/04/21 12:50:57;;;;;;;3.30;3.00;;;19.60;52.50;;;;;;5075105;28;20246;-70
2021/04/21 12:53:31;;;;;;;3.22;2.90;;;19.60;52.40;;;;;;5074802;28;20198;-68
2021/04/21 12:56:07;;;;;;;3.60;2.95;;;19.60;52.40;;;;;;5075292;28;20187;-69
2021/04/21 12:58:38;;;;;;;3.05;2.85;;;19.70;52.30;;;;;;5058303;28;20166;-69
2021/04/21 13:01:07;;;;;;;4.35;3.53;;;19.70;52.80;;;;;;5058987;28;20302;-68
2021/04/21 13:03:33;;;;;;;2.90;2.70;;;19.70;52.20;;;;;;5073888;28;20609;-72
2021/04/21 13:05:58;;;;;;;3.15;2.90;;;19.80;52.20;;;;;;5074503;28;20655;-67
2021/04/21 13:08:25;;;;;;;3.08;2.80;;;19.80;52.10;;;;;;5074671;28;20634;-68
2021/04/21 13:10:55;;;;;;;3.30;2.92;;;19.90;52.10;;;;;;5091806;28;20166;-68
2021/04/21 13:13:25;;;;;;;2.90;2.58;;;19.90;52.00;;;;;;5074588;28;20189;-69
2021/04/21 13:15:51;;;;;;;3.35;3.05;;;20.00;52.00;;;;;;5074205;28;20174;-68
2021/04/21 13:18:16;;;;;;;3.90;3.00;;;20.00;51.90;;;;;;5092174;28;20230;-68